createdAt,value
2022-09-12T00:00:15.799Z,98626.72
2022-09-12T00:03:02.907Z,98630.78
2022-09-12T00:05:31.067Z,98632.50
2022-09-12T00:07:58.223Z,98629.72
2022-09-12T00:10:25.027Z,98636.69
2022-09-12T00:12:52.180Z,98635.69
2022-09-12T00:15:19.383Z,98633.44
2022-09-12T00:17:46.171Z,98634.31
2022-09-12T00:20:13.039Z,98636.47
2022-09-12T00:22:40.142Z,98641.56
2022-09-12T00:25:07.266Z,98633.94
2022-09-12T00:27:34.087Z,98637.47
2022-09-12T00:30:01.166Z,98637.47
2022-09-12T00:32:27.998Z,98643.91
2022-09-12T00:34:54.863Z,98631.44
2022-09-12T00:37:21.911Z,98637.94
2022-09-12T00:39:48.866Z,98635.59
2022-09-12T00:42:15.658Z,98635.44
2022-09-12T00:44:45.266Z,98635.06
2022-09-12T00:47:18.619Z,98624.84
2022-09-12T00:49:58.306Z,98623.66
2022-09-12T00:52:31.138Z,98624.97
2022-09-12T00:55:07.915Z,98628.19
2022-09-12T00:57:37.782Z,98629.41
2022-09-12T01:00:17.223Z,98629.56
2022-09-12T01:02:45.682Z,98630.91
2022-09-12T01:05:12.871Z,98632.91
2022-09-12T01:07:40.327Z,98630.19
2022-09-12T01:10:08.306Z,98624.38
2022-09-12T01:12:35.790Z,98636.97
2022-09-12T01:15:02.651Z,98630.19
2022-09-12T01:17:35.335Z,98630.53
2022-09-12T01:20:21.990Z,98631.53
2022-09-12T01:23:11.925Z,98625.88
2022-09-12T01:26:05.706Z,98626.72
2022-09-12T01:28:51.363Z,98633.34
2022-09-12T01:31:45.212Z,98633.03
2022-09-12T01:34:37.378Z,98625.34
2022-09-12T01:37:25.033Z,98623.63
2022-09-12T01:39:55.068Z,98620.91
2022-09-12T01:42:27.038Z,98623.94
2022-09-12T01:45:10.249Z,98627.69
2022-09-12T01:47:47.529Z,98630.59
2022-09-12T01:50:18.778Z,98628.00
2022-09-12T01:52:53.833Z,98627.31
2022-09-12T01:55:43.498Z,98632.59
2022-09-12T01:58:19.702Z,98640.09
2022-09-12T02:01:08.297Z,98633.19
2022-09-12T02:03:41.745Z,98630.31
2022-09-12T02:06:17.134Z,98633.78
2022-09-12T02:08:49.506Z,98641.41
2022-09-12T02:11:16.371Z,98641.63
2022-09-12T02:14:12.674Z,98640.63
2022-09-12T02:16:40.761Z,98637.78
2022-09-12T02:19:18.761Z,98651.50
2022-09-12T02:21:49.458Z,98640.94
2022-09-12T02:24:16.284Z,98643.66
2022-09-12T02:26:58.465Z,98637.69
2022-09-12T02:29:25.592Z,98642.09
2022-09-12T02:31:59.774Z,98646.84
2022-09-12T02:34:44.213Z,98636.66
2022-09-12T02:37:34.405Z,98637.16
2022-09-12T02:40:01.669Z,98642.09
2022-09-12T02:42:28.504Z,98632.41
2022-09-12T02:44:55.645Z,98630.53
2022-09-12T02:47:38.960Z,98635.66
2022-09-12T02:50:08.122Z,98632.41
2022-09-12T02:52:36.095Z,98640.56
2022-09-12T02:55:04.927Z,98639.88
2022-09-12T02:57:32.016Z,98638.31
2022-09-12T03:00:00.727Z,98643.03
2022-09-12T03:02:37.387Z,98644.59
2022-09-12T03:05:18.863Z,98635.59
2022-09-12T03:08:22.804Z,98636.28
2022-09-12T03:11:17.847Z,98642.59
2022-09-12T03:13:56.888Z,98643.44
2022-09-12T03:16:48.843Z,98646.16
2022-09-12T03:19:27.791Z,98651.75
2022-09-12T03:22:00.863Z,98654.59
2022-09-12T03:24:33.325Z,98647.94
2022-09-12T03:27:16.804Z,98650.13
2022-09-12T03:29:43.763Z,98652.34
2022-09-12T03:32:10.812Z,98651.34
2022-09-12T03:34:37.679Z,98650.13
2022-09-12T03:37:04.832Z,98649.97
2022-09-12T03:39:32.024Z,98657.09
2022-09-12T03:41:58.907Z,98658.13
2022-09-12T03:44:25.959Z,98656.41
2022-09-12T03:46:53.005Z,98657.56
2022-09-12T03:49:19.801Z,98662.00
2022-09-12T03:51:46.627Z,98666.44
2022-09-12T03:54:13.667Z,98656.72
2022-09-12T03:56:41.624Z,98664.00
2022-09-12T03:59:08.491Z,98660.28
2022-09-12T04:01:35.636Z,98659.44
2022-09-12T04:04:02.958Z,98663.31
2022-09-12T04:06:29.958Z,98666.72
2022-09-12T04:08:57.129Z,98659.44
2022-09-12T04:11:24.070Z,98660.44
2022-09-12T04:13:50.990Z,98662.06
2022-09-12T04:16:18.637Z,98665.31
2022-09-12T04:18:45.985Z,98660.91
2022-09-12T04:21:15.433Z,98664.78
2022-09-12T04:23:42.618Z,98668.91
2022-09-12T04:26:09.746Z,98668.53
2022-09-12T04:28:37.537Z,98669.38
2022-09-12T04:31:06.906Z,98671.78
2022-09-12T04:33:34.586Z,98673.78
2022-09-12T04:36:12.520Z,98675.78
2022-09-12T04:38:39.581Z,98670.06
2022-09-12T04:41:23.885Z,98676.09
2022-09-12T04:43:59.115Z,98672.84
2022-09-12T04:46:26.150Z,98673.31
2022-09-12T04:48:56.660Z,98677.31
2022-09-12T04:51:36.020Z,98681.31
2022-09-12T04:54:08.079Z,98685.97
2022-09-12T04:56:37.766Z,98673.38
2022-09-12T04:59:04.910Z,98682.09
2022-09-12T05:01:31.764Z,98681.22
2022-09-12T05:03:59.922Z,98691.09
2022-09-12T05:06:28.950Z,98697.38
2022-09-12T05:08:56.495Z,98697.69
2022-09-12T05:11:33.020Z,98698.97
2022-09-12T05:14:09.014Z,98703.22
2022-09-12T05:16:35.894Z,98698.47
2022-09-12T05:19:02.749Z,98710.22
2022-09-12T05:21:29.862Z,98714.47
2022-09-12T05:23:57.434Z,98706.47
2022-09-12T05:26:24.678Z,98717.03
2022-09-12T05:28:52.128Z,98712.63
2022-09-12T05:31:20.784Z,98716.19
2022-09-12T05:33:49.260Z,98721.63
2022-09-12T05:36:18.016Z,98729.94
2022-09-12T05:38:45.086Z,98732.50
2022-09-12T05:41:22.999Z,98734.22
2022-09-12T05:43:59.316Z,98736.94
2022-09-12T05:46:50.584Z,98742.94
2022-09-12T05:49:17.632Z,98730.34
2022-09-12T05:51:45.507Z,98732.34
2022-09-12T05:54:14.132Z,98731.31
2022-09-12T05:56:42.300Z,98731.19
2022-09-12T05:59:14.067Z,98732.06
2022-09-12T06:01:41.038Z,98728.16
2022-09-12T06:04:08.181Z,98732.59
2022-09-12T06:06:44.893Z,98732.91
2022-09-12T06:09:13.127Z,98740.91
2022-09-12T06:11:42.799Z,98738.88
2022-09-12T06:14:10.951Z,98740.75
2022-09-12T06:16:38.409Z,98729.88
2022-09-12T06:19:16.436Z,98739.56
2022-09-12T06:21:43.925Z,98746.03
2022-09-12T06:24:10.922Z,98742.28
2022-09-12T06:26:37.829Z,98745.16
2022-09-12T06:29:05.107Z,98739.56
2022-09-12T06:31:36.287Z,98741.28
2022-09-12T06:34:08.065Z,98734.13
2022-09-12T06:36:38.427Z,98742.00
2022-09-12T06:39:10.965Z,98747.13
2022-09-12T06:41:41.681Z,98745.25
2022-09-12T06:44:16.204Z,98750.38
2022-09-12T06:46:44.290Z,98752.94
2022-09-12T06:49:11.433Z,98750.53
2022-09-12T06:51:38.323Z,98749.13
2022-09-12T06:54:05.501Z,98743.34
2022-09-12T06:56:32.353Z,98744.75
2022-09-12T06:58:59.424Z,98748.47
2022-09-12T07:01:31.043Z,98750.75
2022-09-12T07:03:59.945Z,98750.13
2022-09-12T07:06:31.840Z,98751.66
2022-09-12T07:08:59.569Z,98760.69
2022-09-12T07:11:28.177Z,98756.25
2022-09-12T07:13:56.474Z,98762.53
2022-09-12T07:16:23.864Z,98761.41
2022-09-12T07:18:51.793Z,98761.09
2022-09-12T07:21:19.168Z,98758.75
2022-09-12T07:23:46.216Z,98753.84
2022-09-12T07:26:14.289Z,98756.09
2022-09-12T07:28:41.465Z,98759.22
2022-09-12T07:31:16.184Z,98761.28
2022-09-12T07:33:43.574Z,98766.09
2022-09-12T07:36:14.428Z,98778.22
2022-09-12T07:38:41.558Z,98772.53
2022-09-12T07:41:15.322Z,98774.78
2022-09-12T07:43:42.233Z,98777.56
2022-09-12T07:46:09.625Z,98771.47
2022-09-12T07:48:36.866Z,98783.47
2022-09-12T07:51:08.139Z,98780.44
2022-09-12T07:53:37.210Z,98781.88
2022-09-12T07:56:05.510Z,98780.19
2022-09-12T07:58:32.910Z,98782.28
2022-09-12T08:01:13.914Z,98775.31
2022-09-12T08:03:41.531Z,98781.84
2022-09-12T08:06:15.507Z,98788.50
2022-09-12T08:08:42.718Z,98782.25
2022-09-12T08:11:12.266Z,98786.03
2022-09-12T08:13:39.962Z,98786.56
2022-09-12T08:16:08.643Z,98793.91
2022-09-12T08:18:36.422Z,98792.56
2022-09-12T08:21:08.496Z,98788.50
2022-09-12T08:23:35.787Z,98787.69
2022-09-12T08:26:06.212Z,98784.47
2022-09-12T08:28:34.169Z,98784.31
2022-09-12T08:31:05.651Z,98783.97
2022-09-12T08:33:33.640Z,98783.28
2022-09-12T08:36:08.685Z,98785.84
2022-09-12T08:38:35.714Z,98786.03
2022-09-12T08:41:14.449Z,98784.00
2022-09-12T08:44:19.769Z,98783.66
2022-09-12T08:46:46.759Z,98781.44
2022-09-12T08:49:15.821Z,98781.44
2022-09-12T08:51:43.035Z,98779.94
2022-09-12T08:54:21.695Z,98781.47
2022-09-12T08:56:48.898Z,98772.78
2022-09-12T08:59:16.034Z,98777.91
2022-09-12T09:01:44.106Z,98774.69
2022-09-12T09:04:20.642Z,98773.13
2022-09-12T09:07:05.617Z,98771.59
2022-09-12T09:09:51.791Z,98773.81
2022-09-12T09:12:55.940Z,98775.88
2022-09-12T09:15:48.687Z,98779.94
2022-09-12T09:18:22.744Z,98782.34
2022-09-12T09:20:51.713Z,98781.16
2022-09-12T09:23:40.439Z,98777.06
2022-09-12T09:26:14.678Z,98783.91
2022-09-12T09:28:42.712Z,98786.31
2022-09-12T09:31:17.312Z,98782.56
2022-09-12T09:33:44.269Z,98786.66
2022-09-12T09:36:11.585Z,98790.75
2022-09-12T09:39:00.925Z,98787.00
2022-09-12T09:41:40.029Z,98785.28
2022-09-12T09:46:35.019Z,98772.78
2022-09-12T09:49:05.734Z,98771.44
2022-09-12T09:51:37.662Z,98763.56
2022-09-12T09:54:21.646Z,98768.16
2022-09-12T09:56:48.512Z,98761.00
2022-09-12T09:59:33.452Z,98751.94
2022-09-12T10:02:13.134Z,98768.13
2022-09-12T10:04:41.915Z,98770.69
2022-09-12T10:07:18.824Z,98773.75
2022-09-12T10:10:03.803Z,98774.63
2022-09-12T10:12:30.665Z,98770.16
2022-09-12T10:15:02.320Z,98769.97
2022-09-12T10:17:34.115Z,98778.31
2022-09-12T10:20:21.572Z,98777.81
2022-09-12T10:22:48.818Z,98781.19
2022-09-12T10:25:16.037Z,98775.91
2022-09-12T10:27:42.842Z,98782.72
2022-09-12T10:30:19.811Z,98776.22
2022-09-12T10:32:50.769Z,98774.16
2022-09-12T10:35:20.412Z,98773.16
2022-09-12T10:38:06.799Z,98776.03
2022-09-12T10:40:38.272Z,98773.94
2022-09-12T10:43:26.094Z,98771.41
2022-09-12T10:45:53.018Z,98775.97
2022-09-12T10:48:32.937Z,98779.88
2022-09-12T10:51:00.170Z,98770.81
2022-09-12T10:53:40.874Z,98767.91
2022-09-12T10:56:17.223Z,98767.75
2022-09-12T10:58:53.776Z,98772.34
2022-09-12T11:02:00.863Z,98768.06
2022-09-12T11:04:59.023Z,98767.66
2022-09-12T11:07:48.405Z,98770.03
2022-09-12T11:10:24.577Z,98781.31
2022-09-12T11:12:58.393Z,98780.78
2022-09-12T11:15:34.644Z,98777.00
2022-09-12T11:18:27.169Z,98776.66
2022-09-12T11:21:45.776Z,98781.25
2022-09-12T11:24:39.791Z,98770.13
2022-09-12T11:27:44.055Z,98775.91
2022-09-12T11:30:15.056Z,98777.44
2022-09-12T11:33:00.132Z,98773.00
2022-09-12T11:35:31.603Z,98779.81
2022-09-12T11:38:57.266Z,98776.69
2022-09-12T11:41:28.793Z,98778.91
2022-09-12T11:44:41.686Z,98785.44
2022-09-12T11:47:11.852Z,98788.00
2022-09-12T11:49:41.607Z,98787.28
2022-09-12T11:52:14.830Z,98786.25
2022-09-12T11:54:43.090Z,98793.41
2022-09-12T11:57:21.370Z,98782.78
2022-09-12T11:59:56.150Z,98787.56
2022-09-12T12:02:28.138Z,98784.97
2022-09-12T12:05:20.777Z,98782.69
2022-09-12T12:08:01.353Z,98784.91
2022-09-12T12:10:37.485Z,98774.81
2022-09-12T12:13:20.078Z,98778.69
2022-09-12T12:15:52.564Z,98778.16
2022-09-12T12:18:23.131Z,98776.25
2022-09-12T12:20:50.905Z,98772.66
2022-09-12T12:23:28.710Z,98768.03
2022-09-12T12:26:02.692Z,98769.34
2022-09-12T12:28:41.892Z,98766.72
2022-09-12T12:31:09.985Z,98766.53
2022-09-12T12:33:39.909Z,98767.00
2022-09-12T12:36:08.763Z,98762.41
2022-09-12T12:38:37.128Z,98758.78
2022-09-12T12:41:19.291Z,98755.50
2022-09-12T12:43:49.402Z,98767.53
2022-09-12T12:46:23.317Z,98756.38
2022-09-12T12:49:18.060Z,98754.28
2022-09-12T12:51:54.273Z,98757.97
2022-09-12T12:54:39.865Z,98754.69
2022-09-12T12:57:16.445Z,98742.09
2022-09-12T12:59:58.377Z,98748.66
2022-09-12T13:02:32.593Z,98748.25
2022-09-12T13:05:00.278Z,98740.41
2022-09-12T13:07:36.172Z,98743.81
2022-09-12T13:10:03.761Z,98740.59
2022-09-12T13:12:43.224Z,98742.25
2022-09-12T13:15:42.098Z,98737.22
2022-09-12T13:18:42.935Z,98732.63
2022-09-12T13:21:13.544Z,98745.25
2022-09-12T13:23:40.832Z,98733.91
2022-09-12T13:26:22.253Z,98740.66
2022-09-12T13:28:50.236Z,98730.16
2022-09-12T13:31:24.993Z,98728.91
2022-09-12T13:33:55.912Z,98732.31
2022-09-12T13:36:53.864Z,98727.88
2022-09-12T13:39:28.528Z,98732.97
2022-09-12T13:41:56.205Z,98735.34
2022-09-12T13:44:23.312Z,98738.66
2022-09-12T13:46:50.285Z,98736.38
2022-09-12T13:49:28.354Z,98738.28
2022-09-12T13:52:02.185Z,98731.75
2022-09-12T13:54:29.236Z,98730.06
2022-09-12T13:56:56.993Z,98733.19
2022-09-12T13:59:23.853Z,98740.94
2022-09-12T14:01:50.797Z,98735.44
2022-09-12T14:04:41.908Z,98730.72
2022-09-12T14:07:13.864Z,98736.00
2022-09-12T14:09:42.696Z,98728.34
2022-09-12T14:12:30.304Z,98727.50
2022-09-12T14:14:57.394Z,98732.09
2022-09-12T14:17:31.650Z,98733.34
2022-09-12T14:20:03.854Z,98735.59
2022-09-12T14:22:30.893Z,98725.00
2022-09-12T14:24:58.763Z,98722.06
2022-09-12T14:27:31.779Z,98724.16
2022-09-12T14:30:03.394Z,98720.72
2022-09-12T14:32:30.749Z,98721.31
2022-09-12T14:35:05.305Z,98725.09
2022-09-12T14:37:32.535Z,98719.97
2022-09-12T14:39:59.512Z,98723.78
2022-09-12T14:42:27.680Z,98715.75
2022-09-12T14:45:01.144Z,98728.97
2022-09-12T14:47:37.676Z,98724.34
2022-09-12T14:50:08.245Z,98723.00
2022-09-12T14:52:38.924Z,98718.38
2022-09-12T14:55:16.057Z,98711.84
2022-09-12T14:57:44.528Z,98711.19
2022-09-12T15:00:11.822Z,98715.34
2022-09-12T15:02:39.472Z,98725.25
2022-09-12T15:05:10.755Z,98718.28
2022-09-12T15:07:49.045Z,98724.78
2022-09-12T15:10:26.409Z,98719.47
2022-09-12T15:13:05.938Z,98717.13
2022-09-12T15:15:33.185Z,98718.16
2022-09-12T15:18:04.505Z,98722.78
2022-09-12T15:20:36.556Z,98718.16
2022-09-12T15:23:03.632Z,98712.00
2022-09-12T15:25:30.484Z,98718.53
2022-09-12T15:27:57.379Z,98711.53
2022-09-12T15:30:24.723Z,98722.84
2022-09-12T15:32:51.554Z,98718.25
2022-09-12T15:35:22.377Z,98725.81
2022-09-12T15:37:49.715Z,98720.69
2022-09-12T15:40:16.753Z,98716.91
2022-09-12T15:42:43.958Z,98719.63
2022-09-12T15:45:26.426Z,98724.28
2022-09-12T15:47:53.745Z,98711.59
2022-09-12T15:50:20.833Z,98717.28
2022-09-12T15:52:47.877Z,98725.50
2022-09-12T15:55:20.597Z,98722.09
2022-09-12T15:57:47.947Z,98719.53
2022-09-12T16:00:15.508Z,98718.69
2022-09-12T16:02:42.354Z,98719.03
2022-09-12T16:05:16.176Z,98718.38
2022-09-12T16:07:44.009Z,98715.84
2022-09-12T16:10:15.331Z,98712.44
2022-09-12T16:12:42.880Z,98709.50
2022-09-12T16:15:21.469Z,98706.13
2022-09-12T16:17:48.695Z,98709.69
2022-09-12T16:20:15.763Z,98715.16
2022-09-12T16:22:42.765Z,98713.47
2022-09-12T16:25:10.230Z,98708.16
2022-09-12T16:27:37.486Z,98706.47
2022-09-12T16:30:07.970Z,98703.06
2022-09-12T16:32:35.214Z,98705.13
2022-09-12T16:35:02.179Z,98711.38
2022-09-12T16:37:29.641Z,98712.44
2022-09-12T16:39:56.978Z,98716.38
2022-09-12T16:42:23.892Z,98716.56
2022-09-12T16:44:50.725Z,98710.44
2022-09-12T16:47:17.784Z,98708.75
2022-09-12T16:49:44.581Z,98713.34
2022-09-12T16:52:12.762Z,98705.31
2022-09-12T16:54:40.174Z,98714.72
2022-09-12T16:57:07.282Z,98710.47
2022-09-12T16:59:34.130Z,98710.63
2022-09-12T17:02:01.252Z,98708.09
2022-09-12T17:04:28.234Z,98708.47
2022-09-12T17:06:55.095Z,98708.66
2022-09-12T17:09:22.200Z,98711.75
2022-09-12T17:11:50.320Z,98715.50
2022-09-12T17:14:17.298Z,98706.63
2022-09-12T17:16:50.748Z,98716.94
2022-09-12T17:19:24.523Z,98710.97
2022-09-12T17:21:51.619Z,98709.44
2022-09-12T17:24:19.363Z,98715.09
2022-09-12T17:26:46.518Z,98716.50
2022-09-12T17:29:16.502Z,98724.22
2022-09-12T17:31:43.554Z,98718.75
2022-09-12T17:34:14.202Z,98725.59
2022-09-12T17:36:44.324Z,98731.06
2022-09-12T17:39:12.158Z,98725.13
2022-09-12T17:41:39.233Z,98718.97
2022-09-12T17:44:07.650Z,98732.84
2022-09-12T17:46:38.000Z,98723.28
2022-09-12T17:49:07.085Z,98733.56
2022-09-12T17:51:35.247Z,98735.97
2022-09-12T17:54:14.117Z,98734.47
2022-09-12T17:56:41.669Z,98743.03
2022-09-12T17:59:09.030Z,98739.81
2022-09-12T18:01:54.736Z,98741.00
2022-09-12T18:04:21.888Z,98738.78
2022-09-12T18:06:49.017Z,98741.03
2022-09-12T18:09:18.035Z,98740.38
2022-09-12T18:11:45.379Z,98741.53
2022-09-12T18:14:14.130Z,98740.19
2022-09-12T18:16:42.719Z,98747.72
2022-09-12T18:19:10.954Z,98745.34
2022-09-12T18:21:38.089Z,98751.34
2022-09-12T18:24:05.223Z,98746.38
2022-09-12T18:26:32.531Z,98746.94
2022-09-12T18:28:59.446Z,98751.69
2022-09-12T18:31:28.842Z,98753.59
2022-09-12T18:33:56.393Z,98746.59
2022-09-12T18:36:23.407Z,98744.91
2022-09-12T18:38:50.291Z,98745.44
2022-09-12T18:41:22.081Z,98740.16
2022-09-12T18:43:49.874Z,98747.84
2022-09-12T18:46:18.139Z,98744.28
2022-09-12T18:48:45.965Z,98741.88
2022-09-12T18:51:20.447Z,98740.72
2022-09-12T18:53:54.969Z,98746.53
2022-09-12T18:56:23.246Z,98747.03
2022-09-12T18:58:52.293Z,98745.69
2022-09-12T19:01:20.870Z,98743.28
2022-09-12T19:03:47.962Z,98735.63
2022-09-12T19:06:20.214Z,98741.41
2022-09-12T19:08:47.810Z,98741.75
2022-09-12T19:11:15.087Z,98740.72
2022-09-12T19:13:43.283Z,98741.56
2022-09-12T19:16:13.751Z,98742.44
2022-09-12T19:18:41.038Z,98733.91
2022-09-12T19:21:12.353Z,98738.84
2022-09-12T19:23:39.214Z,98741.75
2022-09-12T19:26:07.448Z,98741.38
2022-09-12T19:28:34.728Z,98737.31
2022-09-12T19:31:05.516Z,98735.97
2022-09-12T19:33:32.421Z,98741.06
2022-09-12T19:36:04.348Z,98744.31
2022-09-12T19:38:31.330Z,98735.59
2022-09-12T19:40:59.086Z,98734.06
2022-09-12T19:43:26.731Z,98727.41
2022-09-12T19:45:53.746Z,98723.97
2022-09-12T19:48:20.729Z,98728.41
2022-09-12T19:50:48.411Z,98723.28
2022-09-12T19:53:15.622Z,98719.72
2022-09-12T19:55:42.926Z,98730.28
2022-09-12T19:58:10.174Z,98719.69
2022-09-12T20:00:37.392Z,98727.84
2022-09-12T20:03:04.550Z,98722.69
2022-09-12T20:05:32.244Z,98723.91
2022-09-12T20:07:59.663Z,98725.94
2022-09-12T20:10:26.566Z,98718.44
2022-09-12T20:12:53.627Z,98720.47
2022-09-12T20:15:21.787Z,98713.78
2022-09-12T20:17:48.579Z,98714.31
2022-09-12T20:20:15.707Z,98715.16
2022-09-12T20:22:42.599Z,98719.41
2022-09-12T20:25:09.715Z,98714.25
2022-09-12T20:27:36.763Z,98711.56
2022-09-12T20:30:04.123Z,98713.97
2022-09-12T20:32:30.994Z,98710.16
2022-09-12T20:34:58.095Z,98708.13
2022-09-12T20:37:25.147Z,98705.56
2022-09-12T20:39:52.010Z,98712.50
2022-09-12T20:42:19.170Z,98713.16
2022-09-12T20:44:46.002Z,98713.66
2022-09-12T20:47:12.894Z,98709.22
2022-09-12T20:49:39.938Z,98711.41
2022-09-12T20:52:06.834Z,98700.16
2022-09-12T20:54:33.706Z,98709.69
2022-09-12T20:57:00.762Z,98695.50
2022-09-12T20:59:27.630Z,98699.44
2022-09-12T21:01:54.491Z,98699.91
2022-09-12T21:04:22.454Z,98705.50
2022-09-12T21:06:50.106Z,98702.38
2022-09-12T21:09:16.976Z,98708.16
2022-09-12T21:11:44.035Z,98705.75
2022-09-12T21:14:10.933Z,98705.38
2022-09-12T21:16:38.770Z,98706.56
2022-09-12T21:19:06.613Z,98708.38
2022-09-12T21:21:33.465Z,98705.09
2022-09-12T21:24:00.795Z,98709.00
2022-09-12T21:26:27.899Z,98706.28
2022-09-12T21:28:54.908Z,98715.63
2022-09-12T21:31:21.799Z,98710.34
2022-09-12T21:33:49.160Z,98707.22
2022-09-12T21:36:16.032Z,98713.19
2022-09-12T21:38:42.844Z,98713.97
2022-09-12T21:41:14.024Z,98714.13
2022-09-12T21:43:40.884Z,98708.97
2022-09-12T21:46:07.808Z,98705.72
2022-09-12T21:48:35.068Z,98703.31
2022-09-12T21:51:02.043Z,98698.19
2022-09-12T21:53:28.927Z,98701.94
2022-09-12T21:56:00.827Z,98692.53
2022-09-12T21:58:27.656Z,98699.00
2022-09-12T22:00:54.501Z,98698.75
2022-09-12T22:03:22.078Z,98691.75
2022-09-12T22:05:56.999Z,98697.34
2022-09-12T22:08:24.025Z,98691.53
2022-09-12T22:10:50.816Z,98691.88
2022-09-12T22:13:17.619Z,98690.41
2022-09-12T22:15:44.827Z,98691.59
2022-09-12T22:18:11.955Z,98700.06
2022-09-12T22:20:38.807Z,98698.50
2022-09-12T22:23:25.219Z,98698.94
2022-09-12T22:25:54.506Z,98690.94
2022-09-12T22:28:21.498Z,98691.28
2022-09-12T22:30:51.093Z,98688.88
2022-09-12T22:33:17.876Z,98691.88
2022-09-12T22:35:44.872Z,98690.16
2022-09-12T22:38:11.837Z,98686.75
2022-09-12T22:40:38.974Z,98688.09
2022-09-12T22:43:05.919Z,98683.81
2022-09-12T22:45:32.970Z,98679.53
2022-09-12T22:48:00.901Z,98680.84
2022-09-12T22:50:28.687Z,98682.16
2022-09-12T22:52:56.810Z,98684.34
2022-09-12T22:55:23.863Z,98682.75
2022-09-12T22:57:50.692Z,98682.91
2022-09-12T23:00:19.537Z,98681.19
2022-09-12T23:02:46.847Z,98678.81
2022-09-12T23:05:14.038Z,98675.13
2022-09-12T23:07:40.854Z,98677.84
2022-09-12T23:10:08.304Z,98668.88
2022-09-12T23:12:35.098Z,98668.78
2022-09-12T23:15:02.174Z,98669.25
2022-09-12T23:17:29.118Z,98663.75
2022-09-12T23:19:55.988Z,98668.50
2022-09-12T23:22:22.998Z,98671.66
2022-09-12T23:24:49.798Z,98671.50
2022-09-12T23:27:16.614Z,98664.72
2022-09-12T23:29:43.714Z,98666.84
2022-09-12T23:32:10.851Z,98661.28
2022-09-12T23:34:37.695Z,98663.25
2022-09-12T23:37:04.811Z,98660.13
2022-09-12T23:39:31.838Z,98657.13
2022-09-12T23:41:58.702Z,98653.56
2022-09-12T23:44:25.806Z,98653.56
2022-09-12T23:46:52.597Z,98654.94
2022-09-12T23:49:19.654Z,98655.34
2022-09-12T23:51:46.683Z,98648.81
2022-09-12T23:54:13.717Z,98652.25
2022-09-12T23:56:40.501Z,98650.22
2022-09-12T23:59:07.737Z,98640.81
